createdAt,value
2022-08-01T00:00:24.893Z,1.40
2022-08-01T00:04:06.792Z,1.33
2022-08-01T00:07:48.673Z,1.52
2022-08-01T00:11:30.624Z,1.27
2022-08-01T00:15:17.659Z,1.33
2022-08-01T00:18:59.436Z,1.38
2022-08-01T00:22:41.453Z,1.58
2022-08-01T00:26:23.268Z,1.67
2022-08-01T00:30:11.580Z,1.63
2022-08-01T00:33:56.013Z,2.33
2022-08-01T00:37:38.001Z,1.70
2022-08-01T00:41:19.859Z,1.70
2022-08-01T00:45:01.704Z,1.65
2022-08-01T00:48:43.649Z,1.80
2022-08-01T00:52:25.521Z,1.50
2022-08-01T00:56:07.792Z,1.30
2022-08-01T00:59:49.776Z,1.23
2022-08-01T01:03:57.557Z,1.35
2022-08-01T01:07:53.603Z,1.83
2022-08-01T01:11:48.418Z,1.30
2022-08-01T01:15:54.153Z,1.20
2022-08-01T01:19:43.100Z,1.73
2022-08-01T01:23:50.291Z,1.60
2022-08-01T01:27:51.014Z,1.55
2022-08-01T01:31:48.986Z,1.30
2022-08-01T01:35:35.197Z,1.38
2022-08-01T01:39:18.037Z,1.27
2022-08-01T01:43:00.744Z,1.55
2022-08-01T01:46:43.767Z,1.25
2022-08-01T01:50:26.497Z,1.13
2022-08-01T01:54:10.535Z,1.27
2022-08-01T01:57:53.359Z,1.50
2022-08-01T02:01:58.135Z,1.15
2022-08-01T02:05:39.939Z,1.30
2022-08-01T02:09:24.271Z,1.23
2022-08-01T02:13:09.856Z,1.50
2022-08-01T02:16:52.035Z,1.42
2022-08-01T02:20:37.726Z,1.30
2022-08-01T02:24:32.513Z,1.30
2022-08-01T02:28:26.467Z,1.55
2022-08-01T02:32:15.431Z,1.27
2022-08-01T02:36:30.452Z,1.30
2022-08-01T02:40:02.742Z,1.20
2022-08-01T02:43:50.836Z,1.05
2022-08-01T02:47:39.086Z,1.08
2022-08-01T02:51:24.186Z,1.02
2022-08-01T02:55:08.219Z,1.27
2022-08-01T02:58:52.108Z,1.23
2022-08-01T03:02:36.884Z,1.70
2022-08-01T03:06:19.250Z,1.50
2022-08-01T03:10:02.635Z,1.40
2022-08-01T03:13:47.329Z,1.80
2022-08-01T03:17:30.449Z,1.58
2022-08-01T03:21:14.652Z,1.38
2022-08-01T03:24:58.503Z,1.98
2022-08-01T03:28:41.835Z,1.67
2022-08-01T03:32:25.275Z,1.88
2022-08-01T03:36:12.558Z,1.38
2022-08-01T03:40:08.594Z,1.70
2022-08-01T03:44:01.799Z,1.63
2022-08-01T03:47:45.677Z,1.38
2022-08-01T03:51:29.121Z,1.73
2022-08-01T03:55:12.717Z,1.42
2022-08-01T03:58:55.332Z,0.93
2022-08-01T04:02:38.338Z,1.20
2022-08-01T04:06:20.233Z,1.00
2022-08-01T04:10:02.104Z,1.17
2022-08-01T04:13:44.439Z,0.95
2022-08-01T04:17:26.466Z,1.05
2022-08-01T04:21:08.469Z,1.20
2022-08-01T04:24:56.961Z,0.90
2022-08-01T04:28:40.752Z,1.02
2022-08-01T04:32:24.116Z,1.10
2022-08-01T04:36:09.154Z,0.90
2022-08-01T04:39:53.928Z,0.80
2022-08-01T04:43:36.629Z,0.90
2022-08-01T04:47:18.912Z,1.10
2022-08-01T04:51:01.428Z,0.77
2022-08-01T04:54:43.217Z,0.98
2022-08-01T04:58:25.168Z,1.08
2022-08-01T05:02:08.732Z,0.90
2022-08-01T05:05:50.676Z,1.05
2022-08-01T05:09:32.657Z,1.10
2022-08-01T05:13:14.593Z,0.85
2022-08-01T05:16:57.318Z,1.20
2022-08-01T05:20:39.288Z,1.42
2022-08-01T05:24:21.183Z,1.00
2022-08-01T05:28:05.160Z,1.00
2022-08-01T05:31:48.073Z,0.70
2022-08-01T05:35:49.074Z,0.95
2022-08-01T05:39:31.298Z,0.90
2022-08-01T05:43:13.199Z,1.00
2022-08-01T05:46:55.240Z,0.70
2022-08-01T05:50:37.111Z,1.13
2022-08-01T05:54:18.915Z,1.05
2022-08-01T05:58:00.745Z,0.98
2022-08-01T06:01:42.637Z,1.00
2022-08-01T06:05:26.955Z,0.90
2022-08-01T06:09:08.757Z,1.00
2022-08-01T06:12:50.588Z,0.68
2022-08-01T06:16:32.750Z,1.00
2022-08-01T06:20:14.619Z,0.60
2022-08-01T06:23:56.428Z,0.88
2022-08-01T06:27:38.611Z,1.27
2022-08-01T06:31:20.592Z,0.90
2022-08-01T06:35:02.408Z,1.05
2022-08-01T06:38:44.817Z,1.10
2022-08-01T06:42:26.639Z,0.90
2022-08-01T06:46:08.504Z,1.20
2022-08-01T06:49:50.308Z,1.02
2022-08-01T06:53:36.359Z,0.93
2022-08-01T06:57:18.652Z,1.67
2022-08-01T07:01:00.487Z,0.80
2022-08-01T07:04:42.387Z,0.90
2022-08-01T07:08:24.300Z,1.00
2022-08-01T07:12:06.611Z,0.95
2022-08-01T07:15:48.908Z,0.70
2022-08-01T07:19:31.896Z,1.00
2022-08-01T07:23:14.304Z,0.90
2022-08-01T07:26:58.548Z,1.05
2022-08-01T07:30:43.131Z,1.10
2022-08-01T07:34:26.049Z,1.05
2022-08-01T07:38:12.635Z,1.15
2022-08-01T07:42:07.462Z,1.08
2022-08-01T07:45:50.063Z,0.82
2022-08-01T07:49:34.966Z,0.88
2022-08-01T07:53:21.092Z,0.90
2022-08-01T07:57:04.239Z,0.90
2022-08-01T08:00:46.073Z,0.70
2022-08-01T08:04:28.959Z,0.93
2022-08-01T08:08:15.118Z,0.70
2022-08-01T08:11:56.977Z,0.82
2022-08-01T08:15:39.523Z,1.23
2022-08-01T08:19:21.332Z,1.30
2022-08-01T08:23:42.697Z,0.73
2022-08-01T08:27:25.668Z,0.80
2022-08-01T08:31:25.555Z,1.00
2022-08-01T08:35:12.167Z,1.10
2022-08-01T08:38:55.952Z,0.82
2022-08-01T08:42:40.965Z,1.00
2022-08-01T08:46:28.269Z,0.80
2022-08-01T08:50:11.014Z,0.70
2022-08-01T08:53:56.353Z,0.70
2022-08-01T08:57:41.116Z,0.93
2022-08-01T09:01:23.260Z,0.60
2022-08-01T09:05:05.678Z,0.70
2022-08-01T09:08:47.813Z,0.93
2022-08-01T09:12:29.704Z,0.80
2022-08-01T09:16:18.306Z,0.68
2022-08-01T09:20:00.192Z,0.40
2022-08-01T09:24:06.567Z,0.63
2022-08-01T09:27:48.788Z,0.52
2022-08-01T09:31:40.063Z,0.80
2022-08-01T09:35:43.678Z,0.40
2022-08-01T09:39:27.263Z,0.70
2022-08-01T09:43:14.965Z,0.60
2022-08-01T09:46:58.756Z,1.02
2022-08-01T09:50:46.105Z,0.73
2022-08-01T09:54:35.012Z,0.40
2022-08-01T09:58:17.190Z,0.75
2022-08-01T10:01:59.037Z,0.57
2022-08-01T10:05:44.063Z,0.60
2022-08-01T10:09:40.626Z,0.70
2022-08-01T10:13:22.844Z,0.60
2022-08-01T10:17:09.916Z,0.65
2022-08-01T10:21:01.917Z,0.73
2022-08-01T10:24:47.248Z,0.80
2022-08-01T10:28:31.987Z,0.50
2022-08-01T10:32:14.012Z,0.40
2022-08-01T10:35:56.254Z,0.85
2022-08-01T10:39:40.191Z,0.77
2022-08-01T10:43:22.342Z,1.20
2022-08-01T10:47:26.722Z,0.55
2022-08-01T10:55:12.900Z,0.60
2022-08-01T10:59:06.384Z,0.60
2022-08-01T11:03:04.740Z,0.77
2022-08-01T11:07:10.068Z,0.50
2022-08-01T11:11:04.886Z,0.60
2022-08-01T11:15:00.157Z,0.70
2022-08-01T11:18:51.794Z,0.45
2022-08-01T11:23:05.069Z,0.40
2022-08-01T11:27:20.476Z,0.80
2022-08-01T11:31:11.238Z,0.50
2022-08-01T11:34:58.695Z,0.52
2022-08-01T11:38:43.979Z,0.80
2022-08-01T11:42:33.738Z,0.50
2022-08-01T11:46:16.134Z,0.43
2022-08-01T11:49:58.969Z,0.50
2022-08-01T11:53:51.408Z,0.63
2022-08-01T11:57:36.308Z,0.55
2022-08-01T12:01:19.253Z,0.60
2022-08-01T12:05:04.930Z,0.60
2022-08-01T12:08:47.962Z,0.47
2022-08-01T12:12:30.857Z,0.43
2022-08-01T12:16:13.341Z,0.30
2022-08-01T12:19:55.259Z,0.52
2022-08-01T12:23:37.141Z,0.30
2022-08-01T12:27:30.186Z,0.40
2022-08-01T12:31:12.694Z,0.90
2022-08-01T12:34:55.663Z,0.30
2022-08-01T12:38:37.616Z,0.37
2022-08-01T12:42:19.951Z,0.70
2022-08-01T12:46:03.011Z,0.70
2022-08-01T12:49:45.762Z,0.43
2022-08-01T12:53:40.751Z,0.50
2022-08-01T12:57:26.590Z,0.50
2022-08-01T13:01:11.087Z,0.60
2022-08-01T13:04:53.302Z,0.40
2022-08-01T13:08:38.921Z,0.50
2022-08-01T13:12:20.864Z,0.40
2022-08-01T13:16:07.440Z,0.50
2022-08-01T13:19:50.569Z,0.40
2022-08-01T13:24:03.663Z,1.05
2022-08-01T13:27:34.220Z,0.30
2022-08-01T13:31:16.217Z,0.30
2022-08-01T13:35:13.434Z,0.20
2022-08-01T13:39:14.700Z,0.57
2022-08-01T13:42:57.700Z,0.43
2022-08-01T13:46:47.888Z,0.40
2022-08-01T13:50:32.701Z,0.40
2022-08-01T13:54:14.813Z,0.40
2022-08-01T13:57:56.649Z,0.60
2022-08-01T14:01:38.659Z,0.50
2022-08-01T14:05:20.721Z,0.60
2022-08-01T14:09:04.047Z,0.50
2022-08-01T14:13:00.105Z,0.52
2022-08-01T14:16:45.854Z,0.50
2022-08-01T14:24:10.681Z,0.38
2022-08-01T14:27:52.635Z,0.40
2022-08-01T14:31:34.724Z,0.50
2022-08-01T14:35:16.580Z,0.70
2022-08-01T14:38:59.280Z,0.40
2022-08-01T14:42:45.313Z,0.50
2022-08-01T14:46:27.150Z,0.32
2022-08-01T14:50:11.740Z,0.70
2022-08-01T14:53:54.278Z,0.70
2022-08-01T14:57:37.664Z,0.60
2022-08-01T15:01:19.769Z,0.50
2022-08-01T15:05:03.548Z,0.73
2022-08-01T15:08:45.720Z,0.80
2022-08-01T15:12:35.732Z,0.30
2022-08-01T15:16:29.487Z,0.28
2022-08-01T15:20:11.488Z,0.60
2022-08-01T15:23:53.316Z,0.50
2022-08-01T15:27:35.168Z,0.40
2022-08-01T15:31:17.044Z,0.30
2022-08-01T15:34:59.004Z,0.40
2022-08-01T15:38:40.900Z,0.30
2022-08-01T15:42:25.569Z,0.57
2022-08-01T15:46:08.985Z,0.35
2022-08-01T15:49:52.361Z,0.40
2022-08-01T15:53:34.537Z,0.47
2022-08-01T15:57:16.496Z,0.25
2022-08-01T16:00:58.414Z,0.50
2022-08-01T16:04:40.420Z,0.60
2022-08-01T16:08:22.747Z,0.50
2022-08-01T16:12:04.950Z,0.50
2022-08-01T16:15:46.999Z,0.90
2022-08-01T16:19:28.844Z,0.60
2022-08-01T16:23:10.659Z,0.60
2022-08-01T16:26:52.515Z,0.85
2022-08-01T16:30:34.421Z,0.90
2022-08-01T16:34:17.217Z,0.60
2022-08-01T16:37:59.108Z,0.68
2022-08-01T16:41:41.050Z,0.70
2022-08-01T16:45:22.915Z,0.50
2022-08-01T16:49:06.652Z,0.70
2022-08-01T16:52:49.272Z,0.50
2022-08-01T16:56:31.146Z,0.63
2022-08-01T17:00:21.333Z,0.60
2022-08-01T17:04:04.677Z,0.70
2022-08-01T17:07:47.243Z,1.02
2022-08-01T17:11:29.136Z,0.70
2022-08-01T17:15:11.355Z,1.13
2022-08-01T17:18:53.430Z,1.00
2022-08-01T17:22:35.322Z,0.93
2022-08-01T17:26:17.180Z,0.98
2022-08-01T17:29:58.996Z,1.05
2022-08-01T17:33:44.561Z,1.17
2022-08-01T17:37:28.605Z,0.90
2022-08-01T17:41:10.903Z,1.27
2022-08-01T17:44:54.299Z,1.20
2022-08-01T17:48:39.237Z,1.20
2022-08-01T17:52:21.777Z,0.95
2022-08-01T17:56:05.999Z,1.10
2022-08-01T17:59:47.852Z,0.90
2022-08-01T18:03:32.446Z,1.33
2022-08-01T18:08:01.896Z,1.27
2022-08-01T18:11:27.328Z,1.17
2022-08-01T18:15:09.908Z,1.27
2022-08-01T18:18:57.806Z,1.20
2022-08-01T18:22:41.574Z,0.93
2022-08-01T18:26:23.479Z,1.20
2022-08-01T18:30:06.131Z,1.30
2022-08-01T18:33:48.866Z,0.93
2022-08-01T18:37:33.918Z,1.00
2022-08-01T18:41:21.834Z,1.27
2022-08-01T18:45:03.985Z,0.90
2022-08-01T18:48:45.813Z,1.25
2022-08-01T18:52:28.554Z,1.50
2022-08-01T18:59:55.536Z,1.08
2022-08-01T19:03:42.518Z,1.50
2022-08-01T19:07:46.239Z,1.23
2022-08-01T19:11:26.787Z,1.08
2022-08-01T19:15:09.245Z,1.10
2022-08-01T19:18:51.103Z,1.70
2022-08-01T19:22:34.088Z,1.35
2022-08-01T19:26:16.768Z,1.50
2022-08-01T19:30:02.092Z,1.02
2022-08-01T19:33:44.029Z,1.33
2022-08-01T19:37:27.427Z,1.33
2022-08-01T19:41:09.766Z,1.40
2022-08-01T19:44:54.956Z,1.20
2022-08-01T19:48:38.555Z,1.42
2022-08-01T19:52:26.004Z,2.00
2022-08-01T19:56:09.428Z,1.88
2022-08-01T19:59:52.675Z,1.50
2022-08-01T20:03:36.408Z,3.15
2022-08-01T20:07:18.392Z,3.50
2022-08-01T20:11:10.321Z,4.80
2022-08-01T20:14:55.644Z,3.53
2022-08-01T20:18:40.399Z,1.92
2022-08-01T20:22:29.293Z,1.90
2022-08-01T20:26:12.835Z,1.55
2022-08-01T20:29:58.017Z,1.60
2022-08-01T20:33:46.604Z,2.45
2022-08-01T20:38:03.403Z,1.42
2022-08-01T20:41:30.777Z,1.45
2022-08-01T20:45:18.194Z,1.38
2022-08-01T20:49:00.536Z,1.45
2022-08-01T20:52:49.591Z,1.58
2022-08-01T20:56:34.463Z,1.40
2022-08-01T21:00:22.340Z,1.55
2022-08-01T21:04:22.912Z,1.48
2022-08-01T21:08:20.260Z,1.65
2022-08-01T21:12:04.045Z,1.25
2022-08-01T21:16:21.975Z,1.70
2022-08-01T21:20:03.000Z,1.50
2022-08-01T21:24:10.520Z,1.15
2022-08-01T21:27:53.563Z,1.40
2022-08-01T21:31:40.983Z,1.23
2022-08-01T21:35:25.854Z,1.70
2022-08-01T21:39:07.813Z,1.90
2022-08-01T21:42:52.398Z,1.92
2022-08-01T21:46:34.384Z,1.63
2022-08-01T21:50:16.331Z,1.67
2022-08-01T21:54:10.438Z,1.50
2022-08-01T21:58:22.578Z,2.25
2022-08-01T22:02:16.245Z,2.45
2022-08-01T22:06:00.144Z,2.50
2022-08-01T22:09:48.225Z,2.20
2022-08-01T22:13:30.439Z,2.17
2022-08-01T22:17:19.440Z,1.58
2022-08-01T22:21:03.390Z,1.83
2022-08-01T22:24:46.824Z,1.83
2022-08-01T22:28:29.608Z,1.70
2022-08-01T22:32:14.726Z,1.70
2022-08-01T22:35:56.967Z,1.50
2022-08-01T22:39:38.831Z,1.77
2022-08-01T22:43:30.781Z,1.80
2022-08-01T22:47:43.532Z,1.70
2022-08-01T22:51:41.147Z,1.60
2022-08-01T22:55:25.653Z,1.58
2022-08-01T22:59:42.969Z,1.70
2022-08-01T23:03:33.679Z,1.63
2022-08-01T23:07:20.058Z,1.67
2022-08-01T23:14:45.177Z,1.60
2022-08-01T23:18:28.445Z,2.03
2022-08-01T23:22:11.301Z,1.95
2022-08-01T23:25:54.583Z,1.77
2022-08-01T23:29:36.463Z,1.90
2022-08-01T23:33:18.305Z,2.13
2022-08-01T23:37:00.240Z,2.25
2022-08-01T23:40:42.655Z,2.00
2022-08-01T23:44:24.589Z,1.67
2022-08-01T23:48:06.977Z,2.15
2022-08-01T23:51:49.011Z,1.45
2022-08-01T23:55:37.718Z,1.50
2022-08-01T23:59:19.984Z,1.90
